Thursday, February 22, 2018, 5:42 AM EST
Back to Local

KWRI, Mcguire Air Force Base

Location: Trenton, NJ, United States Lat: 40.017
Local Time: 5:42 AM EST (10:42 GMT) Lon: -74.6
Time Zone: US/Eastern Elev: 134 ft

Show me the last for .
Show Decoded

2018-02-22 04:56 METAR KWRI 220956Z AUTO 04008KT 10SM OVC037 12/04 A3046 RMK AO2 SLP314 T01170044
                 =
2018-02-22 03:56 METAR KWRI 220856Z AUTO 02006KT 10SM OVC041 12/05 A3044 RMK AO2 SLP307 60000
                 T01210046 51014 =
2018-02-22 02:56 METAR KWRI 220756Z AUTO 36007KT 10SM OVC036 13/06 A3044 RMK AO2 SLP307 T01280059
                 =
2018-02-22 01:56 METAR KWRI 220656Z AUTO 35008KT 10SM OVC034 13/07 A3042 RMK AO2 RAB18E30 SLP300
                 P0000 T01330073 =
2018-02-22 01:30 METAR KWRI 220630Z AUTO 02007KT 10SM OVC034 14/08 A3041 RMK AO2 RAB18E30 SLP297
                 =
2018-02-22 01:18 METAR KWRI 220618Z AUTO 03008KT 10SM -RA OVC033 14/08 A3040 RMK AO2 RAB18 SLP294
                 =
2018-02-22 00:56 METAR KWRI 220556Z AUTO 33006KT 10SM OVC031 14/08 A3040 RMK AO2 SLP294 T01390081
                 10209 20139 52025 =
2018-02-22 00:26 METAR KWRI 220526Z AUTO 36007KT 10SM OVC030 14/09 A3039 RMK AO2 SLP290 =
2018-02-21 23:56 METAR KWRI 220456Z AUTO 01007KT 10SM OVC026 15/10 A3037 RMK AO2 OVC V BKN SLP283
                 T01450099 402560145 =
2018-02-21 23:36 METAR KWRI 220436Z AUTO 03010KT 10SM BKN026 OVC036 15/11 A3036 RMK AO2 CIG
                 026V037 BKN V SCT CIG 025 RWY18 SLP280 =
2018-02-21 22:56 METAR KWRI 220356Z AUTO 02009KT 10SM BKN035 BKN050 BKN180 15/11 A3036 RMK AO2
                 SLP280 T01510111 =
2018-02-21 22:21 METAR KWRI 220321Z AUTO 01010KT 10SM SCT028 BKN034 16/14 A3034 RMK AO2 SLP273 =
2018-02-21 21:56 METAR KWRI 220256Z AUTO 01010G16KT 10SM BKN028 BKN035 OVC100 19/15 A3033 RMK AO2
                 CIG 028V035 BKN028 V SCT SLP270 T01860151 52025 =
2018-02-21 20:56 METAR KWRI 220156Z AUTO 25005KT 10SM BKN100 BKN130 20/16 A3029 RMK AO2 SLP256
                 T01960158 =
2018-02-21 19:56 METAR KWRI 220056Z AUTO 22007KT 10SM FEW100 20/16 A3027 RMK AO2 SLP250 T01980158
                 =
2018-02-21 18:56 METAR KWRI 212356Z AUTO 21007KT 10SM CLR 21/16 A3025 RMK AO2 SLP243 T02080160
                 10256 20208 53012 =
2018-02-21 17:56 METAR KWRI 212256Z AUTO 22007KT 10SM OVC120 23/16 A3023 RMK AO2 SLP236 T02250163
                 =
2018-02-21 16:56 METAR KWRI 212156Z AUTO 24010KT 10SM CLR 24/17 A3022 RMK AO2 SLP233 T02400165 =
2018-02-21 15:56 METAR KWRI 212056Z AUTO 26013KT 10SM CLR 25/16 A3022 RMK AO2 SLP233 T02510162
                 55004 =
2018-02-21 14:56 METAR KWRI 211956Z AUTO 26015G21KT 10SM CLR 26/16 A3021 RMK AO2 SLP229 T02550161
                 =
2018-02-21 13:56 METAR KWRI 211856Z AUTO 25016G24KT 10SM FEW095 25/16 A3021 RMK AO2 SLP229
                 T02460158 $ =
2018-02-21 12:56 METAR KWRI 211756Z AUTO 24015G27KT 10SM FEW090 25/16 A3023 RMK AO2 PK WND
                 24028/06 SLP236 T02460163 10250 20171 57023 $ =
2018-02-21 11:56 METAR KWRI 211656Z AUTO 24020KT 10SM CLR 24/16 A3026 RMK AO2 SLP246 T02410161 $
                 =
2018-02-21 10:56 METAR KWRI 211556Z AUTO 25015KT 10SM FEW020 23/16 A3028 RMK AO2 SLP253 T02250160
                 $ =
2018-02-21 10:24 METAR KWRI 211524Z 25017KT 10SM SCT015 21/16 A3029 RMK SLP256 $ =
2018-02-21 10:11 METAR KWRI 211511Z AUTO 24014G22KT 10SM BKN015 20/16 A3030 RMK AO2 CIG 014 RWY18
                 SLP260 $ =
2018-02-21 09:56 METAR KWRI 211456Z AUTO 26016G19KT 10SM OVC013 19/16 A3030 RMK AO2 SLP260
                 T01920160 50001 $ =
2018-02-21 09:01 METAR KWRI 211401Z AUTO 24012KT 10SM OVC011 18/16 A3030 RMK AO2 CIG 010 RWY18
                 SLP260 $ =
2018-02-21 08:56 METAR KWRI 211356Z AUTO 24012KT 10SM OVC010 18/16 A3030 RMK AO2 SLP260 T01780159
                 $ =
2018-02-21 08:41 METAR KWRI 211341Z AUTO 24011KT 10SM OVC010 17/16 A3030 RMK AO2 SLP260 $ =
2018-02-21 07:56 METAR KWRI 211256Z AUTO 23011KT 10SM OVC009 17/16 A3030 RMK AO2 SLP260 T01720160
                 $ =
2018-02-21 06:56 METAR KWRI 211156Z AUTO 23011KT 10SM OVC008 17/16 A3029 RMK AO2 SLP256 T01730163
                 10173 20150 53001 $ =
2018-02-21 06:01 METAR KWRI 211101Z AUTO 23009KT 10SM BKN009 BKN028 17/16 A3029 RMK AO2 CIG
                 009V028 BKN009 V SCT CIG 008 RWY06 SLP256 $ =
2018-02-21 05:56 METAR KWRI 211056Z AUTO 23009KT 10SM SCT009 BKN028 17/16 A3029 RMK AO2 BKN V OVC
                 CIG 008 RWY06 SLP256 T01650158 $ =
2018-02-21 05:45 METAR KWRI 211045Z AUTO 22010KT 10SM FEW009 BKN028 16/16 A3029 RMK AO2 SLP256 $
                 =

Support USWX by starting your Amazon purchase here.